sensor_id;sensor_type;location;lat;lon;timestamp;temperature;humidity
78289;DHT22;67539;48.752;12.922;2024-03-17T00:01:40;7.10;99.90
78289;DHT22;67539;48.752;12.922;2024-03-17T00:04:08;7.10;99.90
78289;DHT22;67539;48.752;12.922;2024-03-17T00:06:36;7.00;99.90
78289;DHT22;67539;48.752;12.922;2024-03-17T00:09:03;6.90;99.90
78289;DHT22;67539;48.752;12.922;2024-03-17T00:11:32;6.80;99.90
78289;DHT22;67539;48.752;12.922;2024-03-17T00:14:01;6.80;99.90
78289;DHT22;67539;48.752;12.922;2024-03-17T00:16:27;6.80;99.90
78289;DHT22;67539;48.752;12.922;2024-03-17T00:18:54;6.70;99.90
78289;DHT22;67539;48.752;12.922;2024-03-17T00:21:21;6.70;99.90
78289;DHT22;67539;48.752;12.922;2024-03-17T00:23:50;6.70;99.90
78289;DHT22;67539;48.752;12.922;2024-03-17T00:26:16;6.70;99.90
78289;DHT22;67539;48.752;12.922;2024-03-17T00:28:46;6.70;99.90
78289;DHT22;67539;48.752;12.922;2024-03-17T00:31:17;6.70;99.90
78289;DHT22;67539;48.752;12.922;2024-03-17T00:33:44;6.60;99.90
78289;DHT22;67539;48.752;12.922;2024-03-17T00:36:10;6.60;99.90
78289;DHT22;67539;48.752;12.922;2024-03-17T00:38:37;6.50;99.90
78289;DHT22;67539;48.752;12.922;2024-03-17T00:41:05;6.50;99.90
78289;DHT22;67539;48.752;12.922;2024-03-17T00:43:33;6.40;99.90
78289;DHT22;67539;48.752;12.922;2024-03-17T00:45:59;6.40;99.90
78289;DHT22;67539;48.752;12.922;2024-03-17T00:48:26;6.30;99.90
78289;DHT22;67539;48.752;12.922;2024-03-17T00:50:56;6.30;99.90
78289;DHT22;67539;48.752;12.922;2024-03-17T00:53:24;6.20;99.90
78289;DHT22;67539;48.752;12.922;2024-03-17T00:55:53;6.20;99.90
78289;DHT22;67539;48.752;12.922;2024-03-17T00:58:25;6.20;99.90
78289;DHT22;67539;48.752;12.922;2024-03-17T01:00:51;6.20;99.90
78289;DHT22;67539;48.752;12.922;2024-03-17T01:03:19;6.20;99.90
78289;DHT22;67539;48.752;12.922;2024-03-17T01:05:45;6.10;99.90
78289;DHT22;67539;48.752;12.922;2024-03-17T01:08:13;6.10;99.90
78289;DHT22;67539;48.752;12.922;2024-03-17T01:10:40;6.10;99.90
78289;DHT22;67539;48.752;12.922;2024-03-17T01:13:09;6.10;99.90
78289;DHT22;67539;48.752;12.922;2024-03-17T01:15:38;6.00;99.90
78289;DHT22;67539;48.752;12.922;2024-03-17T01:18:05;6.00;99.90
78289;DHT22;67539;48.752;12.922;2024-03-17T01:20:32;6.00;99.90
78289;DHT22;67539;48.752;12.922;2024-03-17T01:23:00;5.90;99.90
78289;DHT22;67539;48.752;12.922;2024-03-17T01:25:26;5.90;99.90
78289;DHT22;67539;48.752;12.922;2024-03-17T01:27:55;5.90;99.90
78289;DHT22;67539;48.752;12.922;2024-03-17T01:30:22;5.90;99.90
78289;DHT22;67539;48.752;12.922;2024-03-17T01:32:51;5.80;99.90
78289;DHT22;67539;48.752;12.922;2024-03-17T01:35:18;5.80;99.90
78289;DHT22;67539;48.752;12.922;2024-03-17T01:37:46;5.80;99.90
78289;DHT22;67539;48.752;12.922;2024-03-17T01:40:12;5.70;99.90
78289;DHT22;67539;48.752;12.922;2024-03-17T01:42:41;5.70;99.90
78289;DHT22;67539;48.752;12.922;2024-03-17T01:45:28;5.70;99.90
78289;DHT22;67539;48.752;12.922;2024-03-17T01:47:57;5.70;99.90
78289;DHT22;67539;48.752;12.922;2024-03-17T01:50:25;5.70;99.90
78289;DHT22;67539;48.752;12.922;2024-03-17T01:52:55;5.70;99.90
78289;DHT22;67539;48.752;12.922;2024-03-17T01:55:22;5.60;99.90
78289;DHT22;67539;48.752;12.922;2024-03-17T01:57:53;5.60;99.90
78289;DHT22;67539;48.752;12.922;2024-03-17T02:00:20;5.60;99.90
78289;DHT22;67539;48.752;12.922;2024-03-17T02:02:47;5.50;99.90
78289;DHT22;67539;48.752;12.922;2024-03-17T02:05:15;5.50;99.90
78289;DHT22;67539;48.752;12.922;2024-03-17T02:07:42;5.50;99.90
78289;DHT22;67539;48.752;12.922;2024-03-17T02:10:08;5.40;99.90
78289;DHT22;67539;48.752;12.922;2024-03-17T02:44:35;5.40;99.90
78289;DHT22;67539;48.752;12.922;2024-03-17T14:04:31;5.10;99.90
78289;DHT22;67539;48.752;12.922;2024-03-17T14:06:59;15.80;88.70
78289;DHT22;67539;48.752;12.922;2024-03-17T14:09:30;16.30;85.70
78289;DHT22;67539;48.752;12.922;2024-03-17T14:11:57;16.70;82.10
78289;DHT22;67539;48.752;12.922;2024-03-17T14:14:24;16.60;81.50
78289;DHT22;67539;48.752;12.922;2024-03-17T14:16:52;16.60;80.30
78289;DHT22;67539;48.752;12.922;2024-03-17T14:19:19;16.70;82.30
78289;DHT22;67539;48.752;12.922;2024-03-17T14:21:46;16.80;78.50
78289;DHT22;67539;48.752;12.922;2024-03-17T14:24:15;16.90;79.30
78289;DHT22;67539;48.752;12.922;2024-03-17T14:26:42;16.90;77.70
78289;DHT22;67539;48.752;12.922;2024-03-17T14:29:09;17.10;76.20
78289;DHT22;67539;48.752;12.922;2024-03-17T14:31:35;16.80;78.20
78289;DHT22;67539;48.752;12.922;2024-03-17T14:34:03;16.40;77.20
78289;DHT22;67539;48.752;12.922;2024-03-17T14:36:31;16.40;77.70
78289;DHT22;67539;48.752;12.922;2024-03-17T14:38:59;16.40;77.70
78289;DHT22;67539;48.752;12.922;2024-03-17T14:41:29;16.10;78.20
78289;DHT22;67539;48.752;12.922;2024-03-17T14:43:56;15.60;79.30
78289;DHT22;67539;48.752;12.922;2024-03-17T14:46:24;15.30;79.50
78289;DHT22;67539;48.752;12.922;2024-03-17T14:48:51;15.10;81.70
78289;DHT22;67539;48.752;12.922;2024-03-17T14:51:19;14.90;81.80
78289;DHT22;67539;48.752;12.922;2024-03-17T14:53:47;14.70;83.30
78289;DHT22;67539;48.752;12.922;2024-03-17T14:56:15;14.40;83.80
78289;DHT22;67539;48.752;12.922;2024-03-17T14:58:45;14.20;85.20
78289;DHT22;67539;48.752;12.922;2024-03-17T15:01:13;14.30;88.10
78289;DHT22;67539;48.752;12.922;2024-03-17T15:03:40;14.40;84.60
78289;DHT22;67539;48.752;12.922;2024-03-17T15:06:11;14.20;84.40
78289;DHT22;67539;48.752;12.922;2024-03-17T15:08:38;14.00;86.10
78289;DHT22;67539;48.752;12.922;2024-03-17T15:11:05;14.00;86.60
78289;DHT22;67539;48.752;12.922;2024-03-17T15:13:35;13.90;86.40
78289;DHT22;67539;48.752;12.922;2024-03-17T15:16:04;13.80;87.20
78289;DHT22;67539;48.752;12.922;2024-03-17T15:18:32;13.90;87.20
78289;DHT22;67539;48.752;12.922;2024-03-17T15:21:00;13.90;87.70
78289;DHT22;67539;48.752;12.922;2024-03-17T15:23:27;13.90;88.60
78289;DHT22;67539;48.752;12.922;2024-03-17T15:26:06;13.80;88.50
78289;DHT22;67539;48.752;12.922;2024-03-17T15:28:34;13.80;87.80
78289;DHT22;67539;48.752;12.922;2024-03-17T15:31:04;13.70;89.40
78289;DHT22;67539;48.752;12.922;2024-03-17T15:33:32;13.70;90.20
78289;DHT22;67539;48.752;12.922;2024-03-17T15:36:03;13.70;87.70
78289;DHT22;67539;48.752;12.922;2024-03-17T15:38:31;13.80;88.40
78289;DHT22;67539;48.752;12.922;2024-03-17T15:40:59;13.90;89.60
78289;DHT22;67539;48.752;12.922;2024-03-17T15:43:26;13.90;89.20
78289;DHT22;67539;48.752;12.922;2024-03-17T15:45:54;13.80;87.20
78289;DHT22;67539;48.752;12.922;2024-03-17T15:48:22;13.80;88.40
78289;DHT22;67539;48.752;12.922;2024-03-17T15:50:55;13.70;88.20
78289;DHT22;67539;48.752;12.922;2024-03-17T15:53:23;13.70;90.20
78289;DHT22;67539;48.752;12.922;2024-03-17T15:55:56;13.60;88.80
78289;DHT22;67539;48.752;12.922;2024-03-17T15:58:24;13.60;88.40
78289;DHT22;67539;48.752;12.922;2024-03-17T16:00:51;13.50;88.20
78289;DHT22;67539;48.752;12.922;2024-03-17T16:03:19;13.50;89.80
78289;DHT22;67539;48.752;12.922;2024-03-17T16:05:52;13.40;90.00
78289;DHT22;67539;48.752;12.922;2024-03-17T16:08:19;13.40;90.30
78289;DHT22;67539;48.752;12.922;2024-03-17T16:10:51;13.50;90.50
78289;DHT22;67539;48.752;12.922;2024-03-17T16:13:19;13.50;90.30
78289;DHT22;67539;48.752;12.922;2024-03-17T16:15:49;13.40;90.90
78289;DHT22;67539;48.752;12.922;2024-03-17T16:18:17;13.30;90.70
78289;DHT22;67539;48.752;12.922;2024-03-17T16:21:02;13.20;90.70
78289;DHT22;67539;48.752;12.922;2024-03-17T16:23:34;13.10;90.70
78289;DHT22;67539;48.752;12.922;2024-03-17T16:26:03;13.00;91.20
78289;DHT22;67539;48.752;12.922;2024-03-17T16:28:31;13.00;91.10
78289;DHT22;67539;48.752;12.922;2024-03-17T16:31:00;13.00;91.60
78289;DHT22;67539;48.752;12.922;2024-03-17T16:33:28;13.00;92.10
78289;DHT22;67539;48.752;12.922;2024-03-17T16:35:57;12.90;91.80
78289;DHT22;67539;48.752;12.922;2024-03-17T16:38:26;12.90;92.30
78289;DHT22;67539;48.752;12.922;2024-03-17T16:40:57;12.80;92.00
78289;DHT22;67539;48.752;12.922;2024-03-17T16:43:34;12.70;92.50
78289;DHT22;67539;48.752;12.922;2024-03-17T16:46:07;12.60;92.20
78289;DHT22;67539;48.752;12.922;2024-03-17T16:48:35;12.50;92.10
78289;DHT22;67539;48.752;12.922;2024-03-17T16:51:03;12.40;92.50
78289;DHT22;67539;48.752;12.922;2024-03-17T16:53:31;12.30;93.00
78289;DHT22;67539;48.752;12.922;2024-03-17T16:55:58;12.20;93.20
78289;DHT22;67539;48.752;12.922;2024-03-17T16:58:26;12.10;93.50
78289;DHT22;67539;48.752;12.922;2024-03-17T17:00:53;12.00;93.50
78289;DHT22;67539;48.752;12.922;2024-03-17T17:03:21;12.00;93.60
78289;DHT22;67539;48.752;12.922;2024-03-17T17:05:49;11.90;94.00
78289;DHT22;67539;48.752;12.922;2024-03-17T17:08:16;11.80;94.10
78289;DHT22;67539;48.752;12.922;2024-03-17T17:10:45;11.80;94.40
78289;DHT22;67539;48.752;12.922;2024-03-17T17:13:12;11.70;94.40
78289;DHT22;67539;48.752;12.922;2024-03-17T17:15:39;11.60;94.50
78289;DHT22;67539;48.752;12.922;2024-03-17T17:18:07;11.60;94.80
78289;DHT22;67539;48.752;12.922;2024-03-17T17:20:54;11.60;95.00
78289;DHT22;67539;48.752;12.922;2024-03-17T17:23:21;11.50;95.20
78289;DHT22;67539;48.752;12.922;2024-03-17T17:25:51;11.50;95.40
78289;DHT22;67539;48.752;12.922;2024-03-17T17:28:18;11.50;95.50
78289;DHT22;67539;48.752;12.922;2024-03-17T17:30:46;11.40;95.70
78289;DHT22;67539;48.752;12.922;2024-03-17T17:33:15;11.40;95.90
78289;DHT22;67539;48.752;12.922;2024-03-17T17:35:42;11.40;96.00
78289;DHT22;67539;48.752;12.922;2024-03-17T17:38:09;11.30;96.20
78289;DHT22;67539;48.752;12.922;2024-03-17T17:40:37;11.30;96.30
78289;DHT22;67539;48.752;12.922;2024-03-17T17:43:06;11.30;96.30
78289;DHT22;67539;48.752;12.922;2024-03-17T17:45:33;11.20;96.60
78289;DHT22;67539;48.752;12.922;2024-03-17T17:48:00;11.20;96.60
78289;DHT22;67539;48.752;12.922;2024-03-17T17:50:29;11.20;96.80
78289;DHT22;67539;48.752;12.922;2024-03-17T17:52:57;11.10;97.30
78289;DHT22;67539;48.752;12.922;2024-03-17T17:55:24;11.10;97.90
78289;DHT22;67539;48.752;12.922;2024-03-17T17:57:51;11.10;98.10
78289;DHT22;67539;48.752;12.922;2024-03-17T18:00:20;11.00;98.30
78289;DHT22;67539;48.752;12.922;2024-03-17T18:02:48;11.00;98.20
78289;DHT22;67539;48.752;12.922;2024-03-17T18:05:15;11.00;98.20
78289;DHT22;67539;48.752;12.922;2024-03-17T18:07:43;10.90;98.30
78289;DHT22;67539;48.752;12.922;2024-03-17T18:10:10;10.90;98.60
78289;DHT22;67539;48.752;12.922;2024-03-17T18:12:37;10.80;99.50
78289;DHT22;67539;48.752;12.922;2024-03-17T18:15:05;10.80;99.80
78289;DHT22;67539;48.752;12.922;2024-03-17T18:17:34;10.70;99.90
78289;DHT22;67539;48.752;12.922;2024-03-17T18:20:01;10.60;99.90
78289;DHT22;67539;48.752;12.922;2024-03-17T18:22:31;10.60;99.80
78289;DHT22;67539;48.752;12.922;2024-03-17T18:24:59;10.50;99.40
78289;DHT22;67539;48.752;12.922;2024-03-17T18:27:26;10.50;99.90
78289;DHT22;67539;48.752;12.922;2024-03-17T18:29:54;10.50;99.90
78289;DHT22;67539;48.752;12.922;2024-03-17T18:32:21;10.40;99.90
78289;DHT22;67539;48.752;12.922;2024-03-17T18:34:49;10.40;99.90
78289;DHT22;67539;48.752;12.922;2024-03-17T18:37:17;10.40;99.90
78289;DHT22;67539;48.752;12.922;2024-03-17T18:39:45;10.30;99.90
78289;DHT22;67539;48.752;12.922;2024-03-17T18:42:13;10.30;99.90
78289;DHT22;67539;48.752;12.922;2024-03-17T18:44:40;10.30;99.90
78289;DHT22;67539;48.752;12.922;2024-03-17T18:47:07;10.20;99.90
78289;DHT22;67539;48.752;12.922;2024-03-17T18:49:35;10.20;99.90
78289;DHT22;67539;48.752;12.922;2024-03-17T18:52:03;10.20;99.90
78289;DHT22;67539;48.752;12.922;2024-03-17T18:54:31;10.20;99.90
78289;DHT22;67539;48.752;12.922;2024-03-17T18:56:58;10.10;99.90
78289;DHT22;67539;48.752;12.922;2024-03-17T18:59:25;10.10;99.90
78289;DHT22;67539;48.752;12.922;2024-03-17T19:01:52;10.10;99.90
78289;DHT22;67539;48.752;12.922;2024-03-17T19:04:22;10.10;99.90
78289;DHT22;67539;48.752;12.922;2024-03-17T19:06:49;10.00;99.90
78289;DHT22;67539;48.752;12.922;2024-03-17T19:09:17;10.00;99.90
78289;DHT22;67539;48.752;12.922;2024-03-17T19:11:44;10.00;99.90
78289;DHT22;67539;48.752;12.922;2024-03-17T19:14:12;9.90;99.90
78289;DHT22;67539;48.752;12.922;2024-03-17T19:16:39;9.80;99.90
78289;DHT22;67539;48.752;12.922;2024-03-17T19:19:06;9.80;99.90
78289;DHT22;67539;48.752;12.922;2024-03-17T19:21:34;9.70;99.90
78289;DHT22;67539;48.752;12.922;2024-03-17T19:24:04;9.70;99.90
78289;DHT22;67539;48.752;12.922;2024-03-17T19:26:34;9.60;99.90
78289;DHT22;67539;48.752;12.922;2024-03-17T19:29:01;9.60;99.90
78289;DHT22;67539;48.752;12.922;2024-03-17T19:31:28;9.50;99.90
78289;DHT22;67539;48.752;12.922;2024-03-17T19:33:55;9.50;99.90
78289;DHT22;67539;48.752;12.922;2024-03-17T19:36:23;9.50;99.90
78289;DHT22;67539;48.752;12.922;2024-03-17T19:38:51;9.50;99.90
78289;DHT22;67539;48.752;12.922;2024-03-17T19:41:19;9.40;99.90
78289;DHT22;67539;48.752;12.922;2024-03-17T19:43:49;9.40;99.90
78289;DHT22;67539;48.752;12.922;2024-03-17T19:46:17;9.40;99.90
78289;DHT22;67539;48.752;12.922;2024-03-17T19:48:50;9.40;99.90
78289;DHT22;67539;48.752;12.922;2024-03-17T19:51:21;9.30;99.90
78289;DHT22;67539;48.752;12.922;2024-03-17T19:53:50;9.30;99.90
78289;DHT22;67539;48.752;12.922;2024-03-17T19:56:17;9.30;99.90
78289;DHT22;67539;48.752;12.922;2024-03-17T19:58:46;9.30;99.90
78289;DHT22;67539;48.752;12.922;2024-03-17T20:01:15;9.20;99.90
78289;DHT22;67539;48.752;12.922;2024-03-17T20:03:42;9.20;99.90
78289;DHT22;67539;48.752;12.922;2024-03-17T20:06:16;9.20;99.90
78289;DHT22;67539;48.752;12.922;2024-03-17T20:08:44;9.20;99.90
78289;DHT22;67539;48.752;12.922;2024-03-17T20:11:11;9.20;99.90
78289;DHT22;67539;48.752;12.922;2024-03-17T20:13:38;9.20;99.90
78289;DHT22;67539;48.752;12.922;2024-03-17T20:16:06;9.20;99.90
78289;DHT22;67539;48.752;12.922;2024-03-17T20:18:37;9.20;99.90
78289;DHT22;67539;48.752;12.922;2024-03-17T20:21:04;9.10;99.90
78289;DHT22;67539;48.752;12.922;2024-03-17T20:23:31;9.10;99.90
78289;DHT22;67539;48.752;12.922;2024-03-17T20:25:59;9.10;99.90
78289;DHT22;67539;48.752;12.922;2024-03-17T20:28:26;9.10;99.90
78289;DHT22;67539;48.752;12.922;2024-03-17T20:30:53;9.00;99.90
78289;DHT22;67539;48.752;12.922;2024-03-17T20:33:20;9.00;99.90
78289;DHT22;67539;48.752;12.922;2024-03-17T20:35:49;9.00;99.90
78289;DHT22;67539;48.752;12.922;2024-03-17T20:38:16;9.00;99.90
78289;DHT22;67539;48.752;12.922;2024-03-17T20:40:43;9.00;99.90
78289;DHT22;67539;48.752;12.922;2024-03-17T20:43:11;9.00;99.90
78289;DHT22;67539;48.752;12.922;2024-03-17T20:45:38;8.90;99.90
78289;DHT22;67539;48.752;12.922;2024-03-17T20:48:05;8.90;99.90
78289;DHT22;67539;48.752;12.922;2024-03-17T20:50:33;8.90;99.90
78289;DHT22;67539;48.752;12.922;2024-03-17T20:53:02;8.90;99.90
78289;DHT22;67539;48.752;12.922;2024-03-17T20:55:29;8.80;99.90
78289;DHT22;67539;48.752;12.922;2024-03-17T20:57:57;8.80;99.90
78289;DHT22;67539;48.752;12.922;2024-03-17T21:00:25;8.80;99.90
78289;DHT22;67539;48.752;12.922;2024-03-17T21:02:54;8.70;99.90
78289;DHT22;67539;48.752;12.922;2024-03-17T21:05:23;8.70;99.90
78289;DHT22;67539;48.752;12.922;2024-03-17T21:07:52;8.70;99.90
78289;DHT22;67539;48.752;12.922;2024-03-17T21:10:21;8.70;99.90
78289;DHT22;67539;48.752;12.922;2024-03-17T21:12:49;8.60;99.90
78289;DHT22;67539;48.752;12.922;2024-03-17T21:15:18;8.60;99.90
78289;DHT22;67539;48.752;12.922;2024-03-17T21:17:46;8.60;99.90
78289;DHT22;67539;48.752;12.922;2024-03-17T21:20:14;8.60;99.90
78289;DHT22;67539;48.752;12.922;2024-03-17T21:22:41;8.60;99.90
78289;DHT22;67539;48.752;12.922;2024-03-17T21:25:09;8.50;99.90
78289;DHT22;67539;48.752;12.922;2024-03-17T21:27:39;8.50;99.90
78289;DHT22;67539;48.752;12.922;2024-03-17T21:30:13;8.50;99.90
78289;DHT22;67539;48.752;12.922;2024-03-17T21:32:41;8.50;99.90
78289;DHT22;67539;48.752;12.922;2024-03-17T21:35:09;8.50;99.90
78289;DHT22;67539;48.752;12.922;2024-03-17T21:37:37;8.50;99.90
78289;DHT22;67539;48.752;12.922;2024-03-17T21:40:06;8.50;99.90
78289;DHT22;67539;48.752;12.922;2024-03-17T21:42:33;8.50;99.90
78289;DHT22;67539;48.752;12.922;2024-03-17T21:45:02;8.50;99.90
78289;DHT22;67539;48.752;12.922;2024-03-17T21:47:33;8.40;99.90
78289;DHT22;67539;48.752;12.922;2024-03-17T21:50:00;8.40;99.90
78289;DHT22;67539;48.752;12.922;2024-03-17T21:52:27;8.40;99.90
78289;DHT22;67539;48.752;12.922;2024-03-17T21:54:55;8.40;99.90
78289;DHT22;67539;48.752;12.922;2024-03-17T21:57:22;8.40;99.90
78289;DHT22;67539;48.752;12.922;2024-03-17T21:59:50;8.40;99.90
78289;DHT22;67539;48.752;12.922;2024-03-17T22:02:19;8.40;99.90
78289;DHT22;67539;48.752;12.922;2024-03-17T22:04:48;8.30;99.90
78289;DHT22;67539;48.752;12.922;2024-03-17T22:07:15;8.30;99.90
78289;DHT22;67539;48.752;12.922;2024-03-17T22:09:43;8.30;99.90
78289;DHT22;67539;48.752;12.922;2024-03-17T22:12:10;8.30;99.90
78289;DHT22;67539;48.752;12.922;2024-03-17T22:14:37;8.30;99.90
78289;DHT22;67539;48.752;12.922;2024-03-17T22:17:05;8.20;99.90
78289;DHT22;67539;48.752;12.922;2024-03-17T22:19:33;8.20;99.90
78289;DHT22;67539;48.752;12.922;2024-03-17T22:22:00;8.20;99.90
78289;DHT22;67539;48.752;12.922;2024-03-17T22:24:28;8.10;99.90
78289;DHT22;67539;48.752;12.922;2024-03-17T22:26:55;8.10;99.90
78289;DHT22;67539;48.752;12.922;2024-03-17T22:29:23;8.00;99.90
78289;DHT22;67539;48.752;12.922;2024-03-17T22:31:50;8.10;99.90
78289;DHT22;67539;48.752;12.922;2024-03-17T22:34:18;8.00;99.90
78289;DHT22;67539;48.752;12.922;2024-03-17T22:36:47;8.00;99.90
78289;DHT22;67539;48.752;12.922;2024-03-17T22:39:15;8.00;99.90
78289;DHT22;67539;48.752;12.922;2024-03-17T22:41:42;8.00;99.90
78289;DHT22;67539;48.752;12.922;2024-03-17T22:44:11;8.00;99.90
78289;DHT22;67539;48.752;12.922;2024-03-17T22:46:39;8.00;99.90
78289;DHT22;67539;48.752;12.922;2024-03-17T22:49:06;7.90;99.90
78289;DHT22;67539;48.752;12.922;2024-03-17T22:51:34;7.90;99.90
78289;DHT22;67539;48.752;12.922;2024-03-17T22:54:03;7.90;99.90
78289;DHT22;67539;48.752;12.922;2024-03-17T22:56:30;7.80;99.90
78289;DHT22;67539;48.752;12.922;2024-03-17T22:58:57;7.70;99.90
78289;DHT22;67539;48.752;12.922;2024-03-17T23:01:25;7.70;99.90
78289;DHT22;67539;48.752;12.922;2024-03-17T23:03:59;7.70;99.90
78289;DHT22;67539;48.752;12.922;2024-03-17T23:06:27;7.60;99.90
78289;DHT22;67539;48.752;12.922;2024-03-17T23:08:54;7.60;99.90
78289;DHT22;67539;48.752;12.922;2024-03-17T23:11:23;7.60;99.90
78289;DHT22;67539;48.752;12.922;2024-03-17T23:13:50;7.50;99.90
78289;DHT22;67539;48.752;12.922;2024-03-17T23:16:17;7.50;99.90
78289;DHT22;67539;48.752;12.922;2024-03-17T23:18:45;7.40;99.90
78289;DHT22;67539;48.752;12.922;2024-03-17T23:21:12;7.40;99.90
78289;DHT22;67539;48.752;12.922;2024-03-17T23:23:43;7.40;99.90
78289;DHT22;67539;48.752;12.922;2024-03-17T23:26:10;7.40;99.90
78289;DHT22;67539;48.752;12.922;2024-03-17T23:28:42;7.40;99.90
78289;DHT22;67539;48.752;12.922;2024-03-17T23:31:09;7.40;99.90
78289;DHT22;67539;48.752;12.922;2024-03-17T23:33:36;7.30;99.90
78289;DHT22;67539;48.752;12.922;2024-03-17T23:36:04;7.30;99.90
78289;DHT22;67539;48.752;12.922;2024-03-17T23:38:32;7.30;99.90
78289;DHT22;67539;48.752;12.922;2024-03-17T23:40:59;7.20;99.90
78289;DHT22;67539;48.752;12.922;2024-03-17T23:43:26;7.20;99.90
78289;DHT22;67539;48.752;12.922;2024-03-17T23:45:55;7.10;99.90
78289;DHT22;67539;48.752;12.922;2024-03-17T23:48:22;7.10;99.90
78289;DHT22;67539;48.752;12.922;2024-03-17T23:50:49;7.10;99.90
78289;DHT22;67539;48.752;12.922;2024-03-17T23:53:16;7.00;99.90
78289;DHT22;67539;48.752;12.922;2024-03-17T23:55:44;7.00;99.90
78289;DHT22;67539;48.752;12.922;2024-03-17T23:58:11;7.00;99.90
